Terminal Aerodrome Forecast
Issued by NWS

Home | Current Version | Previous Version | Graphics & Text | Print | Product List | Glossary On
Versions: 1 2 3 4 5 6 7 8 9 10 11 12 13 14 15 16 17 18 19 20 21 22 23 24 25 26 27 28 29 30 31 32 33 34 35 36 37 38 39 40 41 42 43 44 45 46 47 48 49 50
000
FTUS43 KGRB 121159 AAA
TAFRHI
TAF AMD
KRHI 121159Z 1212/1312 32009G16KT P6SM -SHSN BKN025
     FM121400 32009G17KT P6SM -SHSN BKN018
     FM121800 32010G16KT P6SM -SHSN BKN035
     FM122000 32009G15KT P6SM SCT025 SCT035
     FM122200 31004KT P6SM SCT040 BKN250
     FM130800 13006KT 1SM -SN BR OVC005=

USA.gov is the U.S. government's official web portal to all federal, state and local government web resources and services.